createdAt,value
2018-09-25T00:02:25.187Z,72.89
2018-09-25T00:13:19.471Z,72.12
2018-09-25T00:16:29.107Z,72.52
2018-09-25T00:19:38.810Z,73.01
2018-09-25T00:22:48.463Z,73.10
2018-09-25T00:25:58.204Z,72.88
2018-09-25T00:29:08.002Z,72.28
2018-09-25T00:32:17.634Z,72.72
2018-09-25T00:35:27.279Z,73.15
2018-09-25T00:38:37.047Z,73.93
2018-09-25T00:41:46.742Z,73.58
2018-09-25T00:44:56.386Z,73.64
2018-09-25T00:48:05.990Z,74.10
2018-09-25T00:51:15.580Z,74.40
2018-09-25T00:54:25.325Z,73.97
2018-09-25T00:57:34.874Z,74.23
2018-09-25T01:00:44.548Z,74.07
2018-09-25T01:03:54.175Z,74.23
2018-09-25T01:07:04.077Z,74.44
2018-09-25T01:10:13.617Z,73.98
2018-09-25T01:13:23.214Z,74.16
2018-09-25T01:16:32.947Z,74.00
2018-09-25T01:19:42.531Z,74.60
2018-09-25T01:22:52.175Z,74.08
2018-09-25T01:26:01.819Z,73.89
2018-09-25T01:29:11.470Z,74.19
2018-09-25T01:32:21.093Z,73.98
2018-09-25T01:35:30.766Z,73.93
2018-09-25T01:38:40.421Z,74.18
2018-09-25T01:41:50.169Z,73.97
2018-09-25T01:44:59.862Z,73.55
2018-09-25T01:48:09.498Z,74.49
2018-09-25T01:51:19.139Z,74.21
2018-09-25T01:54:28.810Z,74.69
2018-09-25T01:57:38.470Z,75.55
2018-09-25T02:00:48.012Z,75.49
2018-09-25T02:03:57.612Z,75.17
2018-09-25T02:07:07.310Z,74.75
2018-09-25T02:10:16.942Z,75.48
2018-09-25T02:13:26.594Z,75.55
2018-09-25T02:16:36.267Z,75.63
2018-09-25T02:19:45.915Z,75.27
2018-09-25T02:22:55.438Z,74.56
2018-09-25T02:26:05.215Z,75.00
2018-09-25T02:29:14.818Z,75.05
2018-09-25T02:32:24.488Z,75.30
2018-09-25T02:35:34.110Z,75.74
2018-09-25T02:38:43.769Z,75.07
2018-09-25T02:41:53.413Z,75.37
2018-09-25T02:45:02.907Z,75.13
2018-09-25T02:48:12.775Z,74.48
2018-09-25T02:51:22.428Z,74.52
2018-09-25T02:54:31.889Z,75.39
2018-09-25T02:57:41.515Z,75.06
2018-09-25T03:00:51.034Z,75.03
2018-09-25T03:04:00.767Z,75.20
2018-09-25T03:07:10.452Z,75.18
2018-09-25T03:10:20.159Z,75.48
2018-09-25T03:13:29.705Z,76.35
2018-09-25T03:16:39.255Z,75.09
2018-09-25T03:19:48.935Z,75.48
2018-09-25T03:22:58.503Z,75.34
2018-09-25T03:26:08.255Z,75.09
2018-09-25T03:29:17.904Z,75.27
2018-09-25T03:32:27.515Z,75.63
2018-09-25T03:35:37.287Z,75.80
2018-09-25T03:38:47.007Z,75.05
2018-09-25T03:41:56.580Z,75.21
2018-09-25T03:45:06.182Z,74.82
2018-09-25T03:48:15.847Z,75.49
2018-09-25T03:51:25.426Z,76.10
2018-09-25T03:54:35.014Z,75.72
2018-09-25T03:57:44.600Z,75.43
2018-09-25T04:00:54.238Z,75.54
2018-09-25T04:04:03.826Z,75.60
2018-09-25T04:07:13.623Z,75.64
2018-09-25T04:10:23.438Z,76.26
2018-09-25T04:13:32.978Z,76.75
2018-09-25T04:16:42.691Z,76.68
2018-09-25T04:19:52.404Z,76.21
2018-09-25T04:23:02.056Z,76.25
2018-09-25T04:26:11.602Z,75.98
2018-09-25T04:29:21.272Z,76.01
2018-09-25T04:32:30.907Z,75.80
2018-09-25T04:35:40.567Z,75.90
2018-09-25T04:38:50.209Z,75.08
2018-09-25T04:41:59.859Z,75.60
2018-09-25T04:45:09.501Z,75.56
2018-09-25T04:48:19.138Z,75.48
2018-09-25T04:51:28.626Z,75.40
2018-09-25T04:54:38.348Z,75.68
2018-09-25T04:57:47.939Z,75.99
2018-09-25T05:00:57.523Z,76.63
2018-09-25T05:04:07.146Z,76.43
2018-09-25T05:07:16.878Z,75.97
2018-09-25T05:10:26.539Z,76.29
2018-09-25T05:13:36.127Z,76.17
2018-09-25T05:16:45.682Z,75.84
2018-09-25T05:19:55.381Z,75.91
2018-09-25T05:23:05.123Z,76.63
2018-09-25T05:26:14.667Z,75.98
2018-09-25T05:29:24.306Z,76.74
2018-09-25T05:32:33.978Z,76.40
2018-09-25T05:35:43.706Z,75.99
2018-09-25T05:38:53.568Z,75.76
2018-09-25T05:42:03.276Z,76.65
2018-09-25T05:45:13.366Z,76.19
2018-09-25T05:48:23.050Z,76.57
2018-09-25T05:51:32.767Z,76.19
2018-09-25T05:54:43.458Z,75.59
2018-09-25T05:57:53.206Z,74.97
2018-09-25T06:01:02.873Z,75.83
2018-09-25T06:04:12.526Z,75.73
2018-09-25T06:07:22.196Z,76.00
2018-09-25T06:10:31.865Z,74.30
2018-09-25T06:13:41.537Z,69.61
2018-09-25T06:16:51.261Z,64.81
2018-09-25T06:20:00.797Z,62.10
2018-09-25T06:23:10.451Z,62.01
2018-09-25T06:26:20.068Z,58.68
2018-09-25T06:29:29.705Z,54.73
2018-09-25T06:32:39.323Z,51.12
2018-09-25T06:35:49.119Z,48.68
2018-09-25T06:38:58.732Z,47.56
2018-09-25T06:42:11.756Z,44.60
2018-09-25T06:45:21.619Z,41.65
2018-09-25T06:48:31.269Z,41.26
2018-09-25T06:51:40.881Z,40.15
2018-09-25T06:54:52.039Z,39.94
2018-09-25T06:58:01.945Z,38.75
2018-09-25T07:01:11.451Z,37.58
2018-09-25T07:04:20.995Z,38.55
2018-09-25T07:07:30.737Z,39.19
2018-09-25T07:10:40.681Z,41.47
2018-09-25T07:13:50.183Z,44.85
2018-09-25T07:16:59.791Z,49.44
2018-09-25T07:20:10.426Z,55.64
2018-09-25T07:23:21.160Z,59.74
2018-09-25T07:26:31.856Z,64.27
2018-09-25T07:29:42.460Z,65.60
2018-09-25T07:32:52.981Z,66.32
2018-09-25T07:36:03.693Z,65.70
2018-09-25T07:39:16.421Z,65.76
2018-09-25T07:42:27.037Z,67.50
2018-09-25T07:45:37.641Z,68.24
2018-09-25T07:48:48.514Z,68.17
2018-09-25T07:51:59.304Z,68.00
2018-09-25T07:55:09.997Z,67.66
2018-09-25T07:58:19.792Z,66.98
2018-09-25T08:01:29.446Z,68.54
2018-09-25T08:04:39.099Z,66.51
2018-09-25T08:07:48.842Z,68.89
2018-09-25T08:10:58.495Z,68.88
2018-09-25T08:14:08.058Z,66.12
2018-09-25T08:17:17.708Z,65.71
2018-09-25T08:20:27.362Z,67.53
2018-09-25T08:23:37.116Z,65.23
2018-09-25T08:26:46.894Z,64.28
2018-09-25T08:29:56.593Z,62.54
2018-09-25T08:33:06.221Z,61.84
2018-09-25T08:36:15.752Z,60.89
2018-09-25T08:39:25.635Z,57.23
2018-09-25T08:42:35.219Z,56.33
2018-09-25T08:45:44.984Z,55.09
2018-09-25T08:48:54.558Z,55.16
2018-09-25T08:52:04.210Z,53.57
2018-09-25T08:55:13.928Z,49.42
2018-09-25T08:58:23.525Z,53.87
2018-09-25T09:01:33.083Z,47.73
2018-09-25T09:04:42.583Z,46.21
2018-09-25T09:07:52.263Z,48.60
2018-09-25T09:11:01.837Z,45.03
2018-09-25T09:14:11.602Z,47.45
2018-09-25T09:17:21.298Z,44.74
2018-09-25T09:20:30.919Z,40.66
2018-09-25T09:23:40.508Z,40.65
2018-09-25T09:26:50.156Z,42.38
2018-09-25T09:29:59.831Z,41.14
2018-09-25T09:33:09.693Z,39.82
2018-09-25T09:36:19.351Z,38.09
2018-09-25T09:39:29.234Z,39.46
2018-09-25T09:42:38.790Z,41.65
2018-09-25T09:45:48.474Z,40.91
2018-09-25T09:48:58.010Z,37.83
2018-09-25T09:52:07.762Z,39.85
2018-09-25T09:55:17.546Z,39.29
2018-09-25T09:58:27.200Z,40.17
2018-09-25T10:01:37.112Z,39.94
2018-09-25T10:04:47.017Z,39.27
2018-09-25T10:07:56.791Z,39.26
2018-09-25T10:11:06.375Z,38.82
2018-09-25T10:14:16.204Z,38.06
2018-09-25T10:17:25.775Z,37.30
2018-09-25T10:20:35.515Z,40.48
2018-09-25T10:23:45.158Z,38.76
2018-09-25T10:26:54.922Z,38.63
2018-09-25T10:30:04.720Z,35.77
2018-09-25T10:33:14.550Z,37.24
2018-09-25T10:36:24.407Z,38.90
2018-09-25T10:39:34.332Z,36.08
2018-09-25T10:42:45.865Z,35.02
2018-09-25T10:45:55.794Z,36.63
2018-09-25T10:49:05.565Z,36.53
2018-09-25T10:52:15.509Z,34.17
2018-09-25T10:55:25.253Z,33.79
2018-09-25T10:58:34.856Z,33.13
2018-09-25T11:01:44.361Z,35.52
2018-09-25T11:04:54.006Z,32.80
2018-09-25T11:08:03.975Z,34.04
2018-09-25T11:11:13.800Z,35.26
2018-09-25T11:14:23.551Z,35.02
2018-09-25T11:17:33.151Z,36.35
2018-09-25T11:20:43.041Z,35.67
2018-09-25T11:23:52.636Z,37.01
2018-09-25T11:27:02.516Z,34.05
2018-09-25T11:30:12.818Z,33.08
2018-09-25T11:33:22.489Z,35.86
2018-09-25T11:36:32.087Z,35.88
2018-09-25T11:39:41.852Z,34.77
2018-09-25T11:42:51.595Z,34.08
2018-09-25T11:46:01.300Z,34.63
2018-09-25T11:49:10.994Z,33.49
2018-09-25T11:52:20.599Z,34.32
2018-09-25T11:55:30.335Z,34.52
2018-09-25T11:58:40.221Z,33.34
2018-09-25T12:01:49.917Z,34.19
2018-09-25T12:04:59.572Z,32.73
2018-09-25T12:08:09.215Z,33.63
2018-09-25T12:11:18.804Z,32.96
2018-09-25T12:14:28.421Z,33.63
2018-09-25T12:17:38.039Z,31.92
2018-09-25T12:20:47.675Z,34.11
2018-09-25T12:23:57.323Z,33.17
2018-09-25T12:27:06.920Z,32.03
2018-09-25T12:30:16.647Z,31.18
2018-09-25T12:33:26.313Z,31.38
2018-09-25T12:36:35.940Z,32.78
2018-09-25T12:39:45.599Z,32.95
2018-09-25T12:42:55.318Z,32.10
2018-09-25T12:46:04.872Z,31.97
2018-09-25T12:49:14.580Z,32.38
2018-09-25T12:52:24.102Z,30.49
2018-09-25T12:55:33.855Z,31.37
2018-09-25T12:58:43.536Z,33.38
2018-09-25T13:01:53.495Z,31.68
2018-09-25T13:05:03.139Z,31.91
2018-09-25T13:08:13.142Z,32.21
2018-09-25T13:11:22.824Z,32.32
2018-09-25T13:14:32.517Z,31.92
2018-09-25T13:17:42.016Z,31.91
2018-09-25T13:20:51.624Z,31.79
2018-09-25T13:24:01.405Z,31.86
2018-09-25T13:27:11.020Z,34.09
2018-09-25T13:30:20.643Z,32.22
2018-09-25T13:33:30.096Z,31.54
2018-09-25T13:36:39.994Z,31.16
2018-09-25T13:39:49.738Z,29.84
2018-09-25T13:42:59.343Z,28.21
2018-09-25T13:46:09.111Z,28.74
2018-09-25T13:49:18.823Z,29.34
2018-09-25T13:52:28.439Z,28.03
2018-09-25T13:55:38.111Z,28.36
2018-09-25T13:58:47.736Z,28.53
2018-09-25T14:01:57.537Z,29.83
2018-09-25T14:05:07.230Z,29.45
2018-09-25T14:08:16.808Z,29.94
2018-09-25T14:11:26.566Z,30.67
2018-09-25T14:14:36.287Z,30.51
2018-09-25T14:17:45.868Z,31.06
2018-09-25T14:20:55.664Z,31.93
2018-09-25T14:24:05.338Z,31.88
2018-09-25T14:27:14.998Z,30.84
2018-09-25T14:30:24.658Z,30.72
2018-09-25T14:33:34.203Z,32.14
2018-09-25T14:36:43.877Z,32.27
2018-09-25T14:39:53.373Z,32.94
2018-09-25T14:43:03.096Z,31.39
2018-09-25T14:46:12.985Z,31.72
2018-09-25T14:49:22.510Z,31.81
2018-09-25T14:52:32.211Z,30.61
2018-09-25T14:55:41.754Z,30.51
2018-09-25T14:58:51.297Z,32.67
2018-09-25T15:02:01.115Z,33.62
2018-09-25T15:05:10.787Z,32.81
2018-09-25T15:08:20.414Z,32.63
2018-09-25T15:11:30.054Z,33.81
2018-09-25T15:14:39.755Z,33.88
2018-09-25T15:17:49.410Z,34.00
2018-09-25T15:20:59.176Z,34.88
2018-09-25T15:24:08.910Z,35.04
2018-09-25T15:27:18.555Z,32.94
2018-09-25T15:30:28.178Z,33.42
2018-09-25T15:33:37.847Z,33.22
2018-09-25T15:36:47.454Z,33.21
2018-09-25T15:39:56.916Z,33.09
2018-09-25T15:43:06.545Z,33.46
2018-09-25T15:46:16.202Z,33.39
2018-09-25T15:49:25.749Z,34.19
2018-09-25T15:52:35.348Z,34.97
2018-09-25T15:55:45.233Z,34.77
2018-09-25T15:58:54.865Z,33.77
2018-09-25T16:02:04.526Z,33.86
2018-09-25T16:05:14.210Z,34.13
2018-09-25T16:08:23.843Z,33.27
2018-09-25T16:11:33.411Z,34.32
2018-09-25T16:14:43.119Z,33.53
2018-09-25T16:17:52.712Z,34.16
2018-09-25T16:21:02.266Z,34.05
2018-09-25T16:24:11.861Z,35.18
2018-09-25T16:27:21.511Z,33.92
2018-09-25T16:30:31.166Z,34.97
2018-09-25T16:33:40.802Z,35.32
2018-09-25T16:36:50.462Z,35.19
2018-09-25T16:40:00.088Z,34.77
2018-09-25T16:43:09.730Z,35.77
2018-09-25T16:46:19.423Z,36.93
2018-09-25T16:49:29.175Z,37.17
2018-09-25T16:52:38.763Z,37.21
2018-09-25T16:55:48.488Z,36.80
2018-09-25T16:58:58.293Z,37.25
2018-09-25T17:02:08.183Z,37.14
2018-09-25T17:05:17.762Z,37.48
2018-09-25T17:08:28.419Z,37.05
2018-09-25T17:11:38.240Z,38.65
2018-09-25T17:14:47.945Z,39.54
2018-09-25T17:17:57.578Z,40.15
2018-09-25T17:21:07.422Z,40.31
2018-09-25T17:24:17.019Z,39.67
2018-09-25T17:27:26.652Z,39.59
2018-09-25T17:30:36.254Z,40.66
2018-09-25T17:33:45.913Z,41.36
2018-09-25T17:36:55.424Z,41.18
2018-09-25T17:40:05.179Z,42.55
2018-09-25T17:43:14.794Z,41.87
2018-09-25T17:46:24.406Z,42.08
2018-09-25T17:49:34.043Z,42.55
2018-09-25T17:52:43.696Z,42.65
2018-09-25T17:55:53.315Z,42.30
2018-09-25T17:59:02.935Z,42.72
2018-09-25T18:02:12.830Z,42.37
2018-09-25T18:05:22.659Z,43.36
2018-09-25T18:08:32.416Z,42.24
2018-09-25T18:11:42.078Z,41.71
2018-09-25T18:14:51.860Z,41.71
2018-09-25T18:18:01.720Z,42.26
2018-09-25T18:21:11.538Z,42.52
2018-09-25T18:24:21.070Z,42.86
2018-09-25T18:27:30.715Z,43.21
2018-09-25T18:30:40.499Z,44.01
2018-09-25T18:33:50.159Z,43.07
2018-09-25T18:36:59.785Z,43.52
2018-09-25T18:40:09.548Z,43.08
2018-09-25T18:43:19.201Z,42.57
2018-09-25T18:46:28.703Z,42.77
2018-09-25T18:49:38.422Z,43.72
2018-09-25T18:52:48.040Z,45.08
2018-09-25T18:55:57.633Z,46.17
2018-09-25T18:59:07.224Z,47.39
2018-09-25T19:02:16.919Z,47.51
2018-09-25T19:05:26.530Z,48.05
2018-09-25T19:08:36.234Z,48.29
2018-09-25T19:11:45.844Z,49.50
2018-09-25T19:14:55.390Z,49.47
2018-09-25T19:18:05.202Z,48.65
2018-09-25T19:21:14.954Z,49.89
2018-09-25T19:24:24.719Z,49.64
2018-09-25T19:27:34.481Z,49.56
2018-09-25T19:30:44.196Z,49.79
2018-09-25T19:33:53.811Z,47.53
2018-09-25T19:37:03.435Z,47.22
2018-09-25T19:40:13.242Z,48.25
2018-09-25T19:43:22.980Z,48.91
2018-09-25T19:46:32.746Z,48.24
2018-09-25T19:49:42.514Z,46.79
2018-09-25T19:52:52.573Z,47.44
2018-09-25T19:56:02.531Z,49.11
2018-09-25T19:59:12.351Z,48.34
2018-09-25T20:02:22.135Z,50.58
2018-09-25T20:05:31.761Z,49.67
2018-09-25T20:08:41.427Z,48.23
2018-09-25T20:11:51.080Z,50.79
2018-09-25T20:15:00.574Z,48.73
2018-09-25T20:18:10.322Z,48.98
2018-09-25T20:21:19.994Z,49.36
2018-09-25T20:24:29.651Z,47.54
2018-09-25T20:27:39.309Z,48.20
2018-09-25T20:30:48.933Z,49.96
2018-09-25T20:33:58.521Z,49.66
2018-09-25T20:37:08.040Z,48.62
2018-09-25T20:40:17.870Z,49.09
2018-09-25T20:43:27.669Z,50.46
2018-09-25T20:46:37.287Z,51.68
2018-09-25T20:49:46.946Z,51.71
2018-09-25T20:52:56.658Z,53.85
2018-09-25T20:56:06.475Z,54.37
2018-09-25T20:59:16.170Z,54.98
2018-09-25T21:02:25.738Z,55.43
2018-09-25T21:05:35.480Z,56.46
2018-09-25T21:08:45.034Z,56.43
2018-09-25T21:11:54.632Z,57.70
2018-09-25T21:15:04.281Z,57.46
2018-09-25T21:18:13.819Z,58.47
2018-09-25T21:21:23.912Z,59.58
2018-09-25T21:24:33.806Z,60.26
2018-09-25T21:27:43.298Z,59.50
2018-09-25T21:30:52.942Z,59.48
2018-09-25T21:34:02.538Z,59.87
2018-09-25T21:37:12.147Z,60.12
2018-09-25T21:40:21.861Z,61.31
2018-09-25T21:43:31.644Z,60.57
2018-09-25T21:46:41.229Z,60.65
2018-09-25T21:49:50.782Z,61.19
2018-09-25T21:53:00.443Z,61.56
2018-09-25T21:56:10.074Z,62.01
2018-09-25T21:59:19.566Z,61.99
2018-09-25T22:02:29.191Z,62.36
2018-09-25T22:05:38.758Z,61.63
2018-09-25T22:08:48.387Z,61.69
2018-09-25T22:11:58.038Z,59.55
2018-09-25T22:15:07.841Z,60.28
2018-09-25T22:18:17.536Z,60.10
2018-09-25T22:21:27.156Z,60.71
2018-09-25T22:24:36.722Z,61.60
2018-09-25T22:27:46.291Z,61.04
2018-09-25T22:30:55.856Z,61.75
2018-09-25T22:34:05.373Z,62.74
2018-09-25T22:37:14.937Z,62.45
2018-09-25T22:40:24.619Z,63.61
2018-09-25T22:43:34.163Z,64.37
2018-09-25T22:46:43.707Z,64.34
2018-09-25T22:49:53.251Z,64.30
2018-09-25T22:53:02.829Z,65.31
2018-09-25T22:56:12.406Z,65.16
2018-09-25T22:59:21.998Z,65.48
2018-09-25T23:02:31.623Z,64.60
2018-09-25T23:05:41.284Z,66.29
2018-09-25T23:08:50.968Z,66.75
2018-09-25T23:12:00.454Z,66.63
2018-09-25T23:15:10.300Z,65.79
2018-09-25T23:18:19.929Z,66.56
2018-09-25T23:21:29.476Z,66.59
2018-09-25T23:24:39.151Z,66.83
2018-09-25T23:27:48.974Z,67.25
2018-09-25T23:30:58.549Z,68.10
2018-09-25T23:34:08.159Z,67.88
2018-09-25T23:37:17.775Z,68.09
2018-09-25T23:40:26.264Z,67.02
2018-09-25T23:44:34.570Z,66.84
2018-09-25T23:47:48.099Z,68.38
2018-09-25T23:51:27.001Z,68.39
2018-09-25T23:54:36.453Z,68.69
2018-09-25T23:57:53.071Z,69.48
